Dodge City Regional Airport
KDDC : rendu visible

Aérodrome :











RETROUVEZ-NOUS SUR...

 
LOGIN :

S'inscrire | Disclaimer

   EN    FR    IT 

 









Légende :    VFR   VFR Marginal   IFR   IFR Intensif   IFR Très Intensif
Visi : 
Plafond : 
>= 8 km
>= 3000ft
5 à 8 km
1000 à 3000 ft
1500m à 5 km
500 à 1000 ft
800 à 1500m
200 à 500 ft
< 800m
< 200 ft
Symboles :   Orages  Brouillard  Fortes neiges  Fortes précipitations  Vent > 20 kt






- Altitude de l'aérodrome : 2594 ft
- Code IATA : DDC


KDDC - Dodge City Regional

DERNIER METAR :
  • 071752Z AUTO 15011G17KT 10SM CLR 33/17 A3004 RMK AO2 SLP137 T03280167 10328 20189 58007

METARs EXPIRÉS :
  • 071652Z AUTO 14011G19KT 10SM CLR 31/17 A3005 RMK AO2 SLP141 T03110172
  • 071552Z AUTO 19011KT 10SM CLR 29/19 A3006 RMK AO2 SLP144 T02940189

TAF KDDC
Valide du 07 à 18h jusqu'au 08 à 18h UTC


071726Z 0718/0818 16015G23KT P6SM SKC
FM080100 15016KT P6SM SKC
FIR KZKC / Amérique du Nord



MET'MAP, la Météo Aéronautique d'un coup d'oeil ! - Copyright ORBIFLY Décembre 2007 - Disclaimer

ORBIFLY MET'MAP TEAM :

Programmation & Développement : Alexandra Zaïnal
Sur une idée originale de : Baudouin d'Aumeries
Assistance à la programmation : Marc-Olivier Méhu
Soutien technique & logistique : Manuel Goepfert

Contact : metmap@orbifly.com




SOURCES & CREDITS :

   NOAA       Earth
Advisory